createdAt,value
2017-08-21T00:01:08.488Z,3.67
2017-08-21T00:03:37.536Z,3.30
2017-08-21T00:06:06.211Z,3.10
2017-08-21T00:08:34.560Z,2.67
2017-08-21T00:11:02.847Z,3.53
2017-08-21T00:13:32.648Z,3.10
2017-08-21T00:16:00.979Z,3.70
2017-08-21T00:18:32.631Z,3.40
2017-08-21T00:21:01.229Z,2.90
2017-08-21T00:23:30.924Z,4.30
2017-08-21T00:26:00.466Z,3.43
2017-08-21T00:28:28.618Z,3.60
2017-08-21T00:30:56.984Z,3.40
2017-08-21T00:33:25.280Z,3.53
2017-08-21T00:35:53.556Z,3.87
2017-08-21T00:38:21.903Z,3.50
2017-08-21T00:40:50.199Z,4.77
2017-08-21T00:43:18.480Z,2.97
2017-08-21T00:45:46.845Z,3.40
2017-08-21T00:48:15.900Z,3.60
2017-08-21T00:50:44.201Z,3.60
2017-08-21T00:53:12.831Z,4.00
2017-08-21T00:55:41.120Z,3.83
2017-08-21T00:58:10.921Z,3.60
2017-08-21T01:00:39.502Z,4.10
2017-08-21T01:03:07.811Z,3.87
2017-08-21T01:05:36.514Z,3.53
2017-08-21T01:08:04.939Z,3.80
2017-08-21T01:10:34.004Z,4.10
2017-08-21T01:13:02.679Z,4.13
2017-08-21T01:15:31.042Z,4.53
2017-08-21T01:17:59.332Z,4.43
2017-08-21T01:20:27.620Z,4.87
2017-08-21T01:22:55.960Z,5.10
2017-08-21T01:25:25.372Z,4.50
2017-08-21T01:27:53.644Z,4.77
2017-08-21T01:30:21.975Z,5.07
2017-08-21T01:32:50.275Z,4.10
2017-08-21T01:35:18.551Z,4.27
2017-08-21T01:37:48.014Z,4.67
2017-08-21T01:40:16.702Z,4.67
2017-08-21T01:42:44.988Z,4.90
2017-08-21T01:45:14.497Z,4.23
2017-08-21T01:47:44.150Z,4.40
2017-08-21T01:50:12.312Z,4.30
2017-08-21T01:52:40.669Z,5.33
2017-08-21T01:55:08.939Z,4.33
2017-08-21T01:57:38.756Z,5.07
2017-08-21T02:00:07.947Z,5.77
2017-08-21T02:02:37.578Z,5.17
2017-08-21T02:05:05.740Z,5.27
2017-08-21T02:07:34.083Z,4.63
2017-08-21T02:10:02.372Z,4.80
2017-08-21T02:12:30.656Z,5.10
2017-08-21T02:15:00.122Z,4.67
2017-08-21T02:17:28.411Z,5.07
2017-08-21T02:19:56.707Z,5.10
2017-08-21T02:22:26.558Z,4.37
2017-08-21T02:24:54.840Z,5.00
2017-08-21T02:27:24.254Z,4.30
2017-08-21T02:29:53.501Z,5.40
2017-08-21T02:32:22.180Z,5.03
2017-08-21T02:34:50.454Z,5.03
2017-08-21T02:37:18.784Z,4.87
2017-08-21T02:39:48.702Z,4.90
2017-08-21T02:42:16.867Z,4.80
2017-08-21T02:44:45.247Z,4.80
2017-08-21T02:47:13.526Z,5.63
2017-08-21T02:49:41.830Z,4.90
2017-08-21T02:52:10.287Z,6.20
2017-08-21T02:54:39.914Z,6.20
2017-08-21T02:57:08.063Z,5.87
2017-08-21T02:59:36.390Z,7.03
2017-08-21T03:02:04.667Z,6.47
2017-08-21T03:04:32.946Z,5.50
2017-08-21T03:07:02.623Z,5.23
2017-08-21T03:09:31.186Z,6.10
2017-08-21T03:12:00.857Z,6.00
2017-08-21T03:14:29.085Z,5.33
2017-08-21T03:16:58.863Z,5.50
2017-08-21T03:19:28.275Z,5.60
2017-08-21T03:21:56.664Z,6.40
2017-08-21T03:24:24.939Z,6.07
2017-08-21T03:26:53.219Z,6.07
2017-08-21T03:29:21.550Z,6.10
2017-08-21T03:31:51.188Z,4.80
2017-08-21T03:34:19.339Z,5.13
2017-08-21T03:36:47.716Z,7.00
2017-08-21T03:39:16.011Z,5.57
2017-08-21T03:41:44.318Z,6.80
2017-08-21T03:44:12.671Z,6.57
2017-08-21T03:46:40.995Z,5.40
2017-08-21T03:49:10.625Z,5.87
2017-08-21T03:51:38.850Z,4.83
2017-08-21T03:54:07.135Z,6.10
2017-08-21T03:56:36.177Z,6.80
2017-08-21T03:59:05.846Z,6.40
2017-08-21T04:01:35.352Z,6.40
2017-08-21T04:04:04.352Z,6.30
2017-08-21T04:06:32.691Z,6.00
2017-08-21T04:09:00.979Z,6.87
2017-08-21T04:11:29.257Z,7.60
2017-08-21T04:13:57.590Z,6.23
2017-08-21T04:16:25.864Z,6.33
2017-08-21T04:18:54.143Z,6.67
2017-08-21T04:21:23.623Z,7.13
2017-08-21T04:23:51.908Z,7.37
2017-08-21T04:26:20.188Z,7.13
2017-08-21T04:28:49.876Z,6.00
2017-08-21T04:31:18.794Z,6.80
2017-08-21T04:33:47.854Z,6.70
2017-08-21T04:36:17.554Z,7.10
2017-08-21T04:38:46.123Z,6.77
2017-08-21T04:41:14.415Z,7.70
2017-08-21T04:43:42.751Z,7.40
2017-08-21T04:46:11.068Z,6.80
2017-08-21T04:48:39.355Z,5.60
2017-08-21T04:51:08.799Z,6.97
2017-08-21T04:53:37.071Z,8.47
2017-08-21T04:56:05.742Z,6.73
2017-08-21T04:58:34.079Z,7.40
2017-08-21T05:01:03.497Z,7.10
2017-08-21T05:03:31.814Z,7.03
2017-08-21T05:06:01.474Z,5.90
2017-08-21T05:08:30.035Z,6.80
2017-08-21T05:10:58.318Z,6.50
2017-08-21T05:13:27.791Z,7.73
2017-08-21T05:15:57.575Z,6.93
2017-08-21T05:18:25.855Z,6.10
2017-08-21T05:20:54.180Z,6.57
2017-08-21T05:23:22.452Z,7.53
2017-08-21T05:25:50.723Z,8.10
2017-08-21T05:28:19.073Z,7.20
2017-08-21T05:30:48.119Z,8.40
2017-08-21T05:33:16.407Z,7.93
2017-08-21T05:35:44.751Z,7.50
2017-08-21T05:38:13.061Z,7.10
2017-08-21T05:40:41.392Z,7.53
2017-08-21T05:43:09.723Z,7.00
2017-08-21T05:45:37.998Z,7.13
2017-08-21T05:48:06.281Z,9.13
2017-08-21T05:50:36.147Z,9.23
2017-08-21T05:53:04.431Z,8.93
2017-08-21T05:55:32.728Z,10.50
2017-08-21T05:58:01.460Z,8.80
2017-08-21T06:00:29.742Z,8.00
2017-08-21T06:02:58.022Z,7.37
2017-08-21T06:05:27.031Z,8.00
2017-08-21T06:07:56.079Z,8.03
2017-08-21T06:10:24.351Z,8.70
2017-08-21T06:12:52.673Z,9.17
2017-08-21T06:15:20.954Z,10.80
2017-08-21T06:17:49.244Z,9.40
2017-08-21T06:20:17.715Z,8.47
2017-08-21T06:22:47.162Z,10.87
2017-08-21T06:25:15.487Z,10.50
2017-08-21T06:27:43.855Z,8.83
2017-08-21T06:30:12.153Z,9.50
2017-08-21T06:32:41.207Z,9.40
2017-08-21T06:35:10.878Z,9.67
2017-08-21T06:37:39.428Z,9.33
2017-08-21T06:40:08.480Z,9.07
2017-08-21T06:42:36.832Z,8.80
2017-08-21T06:45:05.892Z,10.17
2017-08-21T06:47:34.166Z,8.97
2017-08-21T06:50:02.509Z,7.53
2017-08-21T06:52:30.780Z,8.30
2017-08-21T06:54:59.056Z,7.80
2017-08-21T06:57:27.410Z,7.80
2017-08-21T06:59:56.450Z,7.77
2017-08-21T07:02:24.726Z,7.80
2017-08-21T07:04:53.046Z,6.83
2017-08-21T07:07:21.323Z,6.67
2017-08-21T07:09:49.595Z,8.50
2017-08-21T07:12:19.051Z,7.27
2017-08-21T07:14:48.697Z,8.97
2017-08-21T07:17:16.870Z,7.27
2017-08-21T07:19:45.248Z,7.40
2017-08-21T07:22:16.878Z,7.20
2017-08-21T07:24:45.466Z,6.13
2017-08-21T07:27:13.809Z,7.20
2017-08-21T07:29:42.107Z,6.53
2017-08-21T07:32:10.416Z,7.27
2017-08-21T07:34:38.723Z,8.40
2017-08-21T07:37:07.034Z,6.77
2017-08-21T07:39:36.109Z,8.20
2017-08-21T07:42:04.435Z,6.80
2017-08-21T07:44:32.721Z,7.93
2017-08-21T07:47:01.014Z,8.00
2017-08-21T07:49:29.338Z,7.87
2017-08-21T07:51:57.610Z,6.83
2017-08-21T07:54:27.395Z,7.50
2017-08-21T07:56:55.907Z,7.20
2017-08-21T07:59:24.195Z,6.70
2017-08-21T08:01:53.244Z,7.73
2017-08-21T08:04:21.567Z,6.80
2017-08-21T08:06:49.859Z,7.57
2017-08-21T08:09:19.639Z,7.13
2017-08-21T08:11:47.980Z,6.17
2017-08-21T08:14:16.268Z,7.07
2017-08-21T08:16:44.561Z,7.10
2017-08-21T08:19:12.941Z,6.93
2017-08-21T08:21:41.292Z,6.93
2017-08-21T08:24:10.339Z,6.10
2017-08-21T08:26:38.673Z,5.20
2017-08-21T08:29:06.949Z,4.07
2017-08-21T08:31:36.584Z,4.13
2017-08-21T08:34:05.215Z,4.10
2017-08-21T08:36:33.490Z,4.50
2017-08-21T08:39:01.776Z,3.70
2017-08-21T08:41:30.869Z,3.30
2017-08-21T08:43:59.142Z,3.97
2017-08-21T08:46:27.424Z,4.20
2017-08-21T08:48:57.254Z,3.60
2017-08-21T08:51:25.531Z,3.50
2017-08-21T08:53:53.811Z,3.93
2017-08-21T08:56:22.147Z,3.60
2017-08-21T08:58:50.447Z,3.70
2017-08-21T09:01:19.902Z,3.33
2017-08-21T09:03:48.268Z,3.80
2017-08-21T09:06:16.580Z,4.10
2017-08-21T09:08:44.899Z,3.10
2017-08-21T09:11:13.318Z,2.93
2017-08-21T09:13:43.127Z,3.50
2017-08-21T09:16:11.411Z,3.63
2017-08-21T09:18:41.122Z,2.40
2017-08-21T09:21:09.678Z,3.03
2017-08-21T09:23:37.968Z,2.50
2017-08-21T09:26:07.061Z,2.63
2017-08-21T09:28:35.344Z,3.57
2017-08-21T09:31:05.119Z,2.73
2017-08-21T09:33:33.447Z,3.13
2017-08-21T09:36:01.728Z,3.00
2017-08-21T09:38:30.005Z,3.50
2017-08-21T09:40:58.739Z,3.00
2017-08-21T09:43:27.787Z,3.13
2017-08-21T09:45:56.068Z,4.60
2017-08-21T09:48:24.398Z,3.20
2017-08-21T09:50:52.675Z,2.77
2017-08-21T09:53:20.951Z,3.10
2017-08-21T09:55:50.796Z,3.23
2017-08-21T09:58:19.070Z,2.97
2017-08-21T10:00:47.354Z,3.33
2017-08-21T10:03:15.703Z,3.40
2017-08-21T10:05:44.041Z,2.80
2017-08-21T10:08:12.739Z,3.37
2017-08-21T10:10:41.049Z,2.67
2017-08-21T10:13:09.326Z,2.90
2017-08-21T10:15:37.599Z,2.50
2017-08-21T10:18:05.964Z,3.23
2017-08-21T10:20:35.751Z,3.30
2017-08-21T10:23:04.023Z,2.30
2017-08-21T10:25:32.350Z,2.30
2017-08-21T10:28:00.630Z,2.67
2017-08-21T10:30:30.051Z,2.77
2017-08-21T10:32:58.375Z,2.23
2017-08-21T10:35:26.659Z,2.20
2017-08-21T10:37:54.938Z,2.40
2017-08-21T10:40:23.350Z,3.40
2017-08-21T10:42:52.396Z,2.23
2017-08-21T10:45:21.434Z,2.90
2017-08-21T10:47:49.795Z,2.40
2017-08-21T10:50:19.492Z,2.50
2017-08-21T10:52:48.989Z,2.53
2017-08-21T10:55:17.355Z,2.77
2017-08-21T10:57:45.652Z,2.47
2017-08-21T11:00:13.975Z,2.33
2017-08-21T11:02:43.455Z,2.70
2017-08-21T11:05:11.759Z,2.33
2017-08-21T11:07:40.042Z,2.20
2017-08-21T11:10:09.895Z,2.90
2017-08-21T11:12:38.186Z,2.40
2017-08-21T11:15:06.463Z,2.27
2017-08-21T11:17:34.771Z,2.43
2017-08-21T11:20:03.059Z,2.00
2017-08-21T11:22:31.330Z,2.27
2017-08-21T11:25:01.163Z,2.40
2017-08-21T11:27:29.439Z,2.33
2017-08-21T11:29:59.071Z,2.30
2017-08-21T11:32:28.783Z,2.30
2017-08-21T11:34:57.057Z,1.90
2017-08-21T11:37:25.352Z,2.07
2017-08-21T11:39:53.675Z,2.37
2017-08-21T11:42:23.095Z,2.43
2017-08-21T11:44:51.370Z,2.60
2017-08-21T11:47:19.746Z,2.63
2017-08-21T11:49:48.108Z,2.53
2017-08-21T11:52:16.397Z,3.43
2017-08-21T11:54:46.288Z,2.03
2017-08-21T11:57:14.617Z,1.90
2017-08-21T11:59:42.939Z,2.33
2017-08-21T12:02:12.869Z,2.30
2017-08-21T12:04:41.937Z,2.97
2017-08-21T12:07:10.982Z,2.33
2017-08-21T12:09:39.347Z,2.17
2017-08-21T12:12:08.391Z,2.73
2017-08-21T12:14:36.659Z,2.60
2017-08-21T12:17:05.750Z,2.27
2017-08-21T12:19:34.796Z,2.10
2017-08-21T12:22:03.075Z,2.23
2017-08-21T12:24:31.418Z,2.23
2017-08-21T12:26:59.690Z,2.17
2017-08-21T12:29:27.975Z,2.37
2017-08-21T12:31:57.423Z,2.73
2017-08-21T12:34:25.691Z,2.33
2017-08-21T12:36:53.984Z,2.47
2017-08-21T12:39:22.316Z,3.30
2017-08-21T12:41:50.622Z,2.70
2017-08-21T12:44:20.289Z,2.83
2017-08-21T12:46:48.907Z,2.90
2017-08-21T12:49:17.229Z,2.67
2017-08-21T12:51:45.590Z,1.73
2017-08-21T12:54:15.303Z,2.53
2017-08-21T12:56:44.273Z,2.70
2017-08-21T12:59:13.003Z,2.57
2017-08-21T13:01:41.377Z,2.30
2017-08-21T13:04:10.795Z,2.60
2017-08-21T13:06:39.102Z,2.90
2017-08-21T13:09:07.812Z,2.47
2017-08-21T13:11:36.090Z,2.23
2017-08-21T13:14:05.537Z,3.07
2017-08-21T13:16:33.866Z,2.37
2017-08-21T13:19:02.131Z,3.70
2017-08-21T13:21:30.413Z,3.83
2017-08-21T13:24:00.243Z,2.57
2017-08-21T13:26:29.858Z,2.60
2017-08-21T13:28:59.363Z,2.67
2017-08-21T13:31:27.981Z,3.70
2017-08-21T13:33:56.251Z,2.23
2017-08-21T13:36:25.886Z,2.73
2017-08-21T13:38:54.486Z,2.40
2017-08-21T13:41:24.112Z,2.60
2017-08-21T13:43:52.284Z,2.47
2017-08-21T13:46:20.667Z,1.90
2017-08-21T13:48:48.979Z,2.30
2017-08-21T13:51:17.359Z,2.40
2017-08-21T13:53:45.732Z,2.47
2017-08-21T13:56:15.403Z,2.20
2017-08-21T13:58:43.777Z,2.53
2017-08-21T14:01:12.214Z,2.07
2017-08-21T14:03:40.511Z,2.23
2017-08-21T14:06:08.788Z,1.97
2017-08-21T14:08:37.543Z,1.80
2017-08-21T14:11:06.590Z,2.33
2017-08-21T14:13:34.863Z,2.27
2017-08-21T14:16:03.967Z,2.20
2017-08-21T14:18:32.239Z,1.93
2017-08-21T14:21:00.517Z,1.83
2017-08-21T14:23:28.869Z,1.70
2017-08-21T14:25:58.283Z,3.03
2017-08-21T14:28:26.565Z,2.20
2017-08-21T14:30:54.899Z,2.43
2017-08-21T14:33:23.166Z,1.90
2017-08-21T14:35:51.465Z,3.30
2017-08-21T14:38:19.796Z,2.70
2017-08-21T14:40:48.090Z,2.50
2017-08-21T14:43:17.901Z,2.57
2017-08-21T14:45:48.491Z,2.30
2017-08-21T14:48:17.422Z,3.07
2017-08-21T14:50:46.483Z,2.83
2017-08-21T14:53:14.853Z,2.40
2017-08-21T14:55:43.154Z,2.93
2017-08-21T14:58:11.848Z,2.30
2017-08-21T15:00:41.932Z,2.50
2017-08-21T15:03:10.226Z,2.13
2017-08-21T15:05:38.524Z,2.30
2017-08-21T15:08:06.848Z,2.50
2017-08-21T15:10:35.124Z,2.60
2017-08-21T15:13:03.394Z,2.67
2017-08-21T15:15:32.887Z,2.40
2017-08-21T15:18:01.169Z,1.90
2017-08-21T15:20:29.443Z,2.23
2017-08-21T15:22:59.131Z,3.23
2017-08-21T15:25:28.051Z,2.60
2017-08-21T15:27:57.831Z,2.60
2017-08-21T15:30:26.184Z,2.60
2017-08-21T15:32:55.226Z,2.67
2017-08-21T15:35:23.503Z,2.70
2017-08-21T15:37:53.194Z,2.50
2017-08-21T15:40:22.115Z,2.93
2017-08-21T15:42:51.894Z,2.27
2017-08-21T15:45:20.230Z,2.50
2017-08-21T15:47:48.507Z,2.97
2017-08-21T15:50:16.801Z,3.27
2017-08-21T15:52:45.146Z,2.40
2017-08-21T15:55:14.816Z,2.50
2017-08-21T15:57:42.976Z,4.63
2017-08-21T16:00:12.143Z,16.73
2017-08-21T16:02:40.814Z,2.97
2017-08-21T16:05:09.496Z,2.63
2017-08-21T16:07:37.815Z,2.37
2017-08-21T16:10:06.094Z,2.37
2017-08-21T16:12:35.134Z,2.40
2017-08-21T16:15:04.239Z,2.53
2017-08-21T16:17:32.528Z,2.50
2017-08-21T16:20:01.582Z,1.90
2017-08-21T16:22:29.907Z,2.50
2017-08-21T16:24:58.182Z,2.40
2017-08-21T16:27:26.450Z,2.73
2017-08-21T16:29:54.766Z,3.17
2017-08-21T16:32:24.180Z,2.80
2017-08-21T16:34:52.458Z,2.57
2017-08-21T16:37:22.162Z,2.50
2017-08-21T16:39:50.706Z,2.50
2017-08-21T16:42:18.990Z,2.70
2017-08-21T16:44:47.363Z,2.53
2017-08-21T16:47:15.648Z,2.23
2017-08-21T16:49:43.939Z,2.77
2017-08-21T16:52:13.045Z,2.60
2017-08-21T16:54:42.681Z,2.63
2017-08-21T16:57:11.237Z,2.10
2017-08-21T16:59:40.938Z,2.00
2017-08-21T17:02:09.211Z,3.17
2017-08-21T17:04:37.495Z,2.47
2017-08-21T17:07:05.823Z,2.83
2017-08-21T17:09:35.611Z,2.20
2017-08-21T17:12:03.887Z,2.60
2017-08-21T17:14:32.641Z,2.43
2017-08-21T17:17:00.931Z,2.30
2017-08-21T17:19:29.211Z,2.63
2017-08-21T17:21:58.676Z,2.03
2017-08-21T17:24:26.948Z,2.90
2017-08-21T17:26:54.988Z,2.30
2017-08-21T17:29:23.066Z,2.70
2017-08-21T17:31:51.339Z,2.10
2017-08-21T17:34:19.614Z,2.37
2017-08-21T17:36:48.231Z,2.30
2017-08-21T17:39:16.920Z,2.17
2017-08-21T17:41:46.558Z,2.63
2017-08-21T17:44:15.560Z,2.47
2017-08-21T17:46:45.575Z,2.67
2017-08-21T17:49:13.887Z,2.10
2017-08-21T17:51:42.713Z,2.27
2017-08-21T17:54:11.770Z,2.80
2017-08-21T17:56:40.051Z,2.40
2017-08-21T17:59:08.812Z,2.70
2017-08-21T18:01:38.223Z,2.27
2017-08-21T18:04:06.487Z,3.37
2017-08-21T18:06:34.822Z,2.73
2017-08-21T18:09:03.131Z,2.80
2017-08-21T18:11:31.422Z,2.30
2017-08-21T18:14:01.159Z,3.00
2017-08-21T18:16:29.698Z,2.47
2017-08-21T18:18:58.748Z,3.00
2017-08-21T18:21:27.095Z,2.90
2017-08-21T18:23:55.366Z,4.27
2017-08-21T18:26:23.642Z,3.60
2017-08-21T18:28:53.491Z,2.90
2017-08-21T18:31:23.284Z,3.10
2017-08-21T18:33:51.946Z,2.73
2017-08-21T18:36:20.308Z,2.27
2017-08-21T18:38:48.613Z,3.53
2017-08-21T18:41:18.619Z,2.87
2017-08-21T18:43:48.123Z,3.20
2017-08-21T18:46:16.862Z,4.33
2017-08-21T18:48:46.530Z,3.50
2017-08-21T18:51:15.178Z,3.37
2017-08-21T18:53:43.498Z,3.30
2017-08-21T18:56:12.597Z,2.67
2017-08-21T18:58:41.708Z,3.10
2017-08-21T19:01:11.338Z,3.07
2017-08-21T19:03:39.892Z,3.10
2017-08-21T19:06:09.002Z,3.20
2017-08-21T19:08:37.284Z,2.80
2017-08-21T19:11:05.559Z,3.00
2017-08-21T19:13:33.903Z,3.03
2017-08-21T19:16:02.187Z,2.70
2017-08-21T19:18:30.467Z,2.30
2017-08-21T19:21:00.137Z,3.03
2017-08-21T19:23:28.296Z,2.80
2017-08-21T19:25:56.578Z,3.00
2017-08-21T19:28:24.995Z,3.30
2017-08-21T19:30:54.778Z,3.43
2017-08-21T19:33:23.059Z,3.70
2017-08-21T19:35:51.411Z,2.90
2017-08-21T19:38:19.704Z,3.70
2017-08-21T19:40:49.348Z,2.80
2017-08-21T19:43:17.571Z,3.00
2017-08-21T19:45:45.864Z,3.30
2017-08-21T19:48:14.940Z,2.97
2017-08-21T19:50:43.309Z,3.00
2017-08-21T19:53:11.634Z,5.43
2017-08-21T19:55:39.911Z,4.47
2017-08-21T19:58:09.640Z,4.00
2017-08-21T20:00:37.792Z,3.23
2017-08-21T20:03:07.663Z,3.93
2017-08-21T20:05:36.016Z,4.30
2017-08-21T20:08:05.643Z,4.03
2017-08-21T20:10:34.196Z,3.57
2017-08-21T20:13:02.511Z,4.23
2017-08-21T20:15:30.786Z,3.40
2017-08-21T20:18:00.419Z,3.17
2017-08-21T20:20:29.413Z,4.33
2017-08-21T20:22:57.686Z,3.60
2017-08-21T20:25:27.466Z,3.97
2017-08-21T20:27:55.790Z,4.70
2017-08-21T20:30:25.418Z,5.00
2017-08-21T20:32:54.963Z,4.33
2017-08-21T20:35:23.154Z,4.20
2017-08-21T20:37:51.459Z,4.20
2017-08-21T20:40:21.295Z,3.67
2017-08-21T20:42:49.615Z,3.23
2017-08-21T20:45:17.902Z,4.10
2017-08-21T20:47:46.232Z,5.00
2017-08-21T20:50:14.553Z,4.37
2017-08-21T20:52:44.341Z,5.10
2017-08-21T20:55:12.659Z,4.73
2017-08-21T20:57:40.983Z,4.87
2017-08-21T21:00:10.764Z,5.30
2017-08-21T21:02:39.070Z,4.53
2017-08-21T21:05:07.386Z,4.80
2017-08-21T21:07:36.431Z,4.67
2017-08-21T21:10:05.151Z,4.80
2017-08-21T21:12:33.471Z,4.40
2017-08-21T21:15:02.889Z,4.63
2017-08-21T21:17:31.615Z,4.63
2017-08-21T21:20:01.092Z,3.93
2017-08-21T21:22:29.363Z,4.87
2017-08-21T21:24:57.667Z,5.30
2017-08-21T21:27:25.982Z,5.17
2017-08-21T21:29:54.250Z,4.80
2017-08-21T21:32:22.556Z,4.50
2017-08-21T21:34:51.999Z,5.07
2017-08-21T21:37:20.270Z,4.50
2017-08-21T21:39:48.550Z,4.90
2017-08-21T21:42:16.882Z,5.13
2017-08-21T21:44:45.965Z,4.67
2017-08-21T21:47:15.608Z,3.80
2017-08-21T21:49:45.269Z,4.57
2017-08-21T21:52:14.581Z,4.60
2017-08-21T21:54:42.876Z,4.90
2017-08-21T21:57:11.232Z,4.83
2017-08-21T21:59:40.646Z,5.27
2017-08-21T22:02:08.921Z,4.80
2017-08-21T22:04:37.253Z,5.40
2017-08-21T22:07:05.526Z,5.37
2017-08-21T22:09:33.799Z,4.50
2017-08-21T22:12:03.059Z,25.10
2017-08-21T22:14:32.703Z,13.57
2017-08-21T22:17:02.006Z,8.03
2017-08-21T22:19:30.335Z,7.07
2017-08-21T22:21:58.611Z,6.07
2017-08-21T22:24:28.235Z,4.43
2017-08-21T22:26:57.787Z,6.13
2017-08-21T22:29:27.071Z,6.13
2017-08-21T22:31:55.346Z,4.83
2017-08-21T22:34:24.443Z,5.23
2017-08-21T22:37:23.651Z,5.23
2017-08-21T22:39:52.632Z,4.83
2017-08-21T22:42:20.906Z,5.00
2017-08-21T22:44:49.184Z,5.50
2017-08-21T22:47:19.035Z,4.70
2017-08-21T22:49:48.670Z,4.90
2017-08-21T22:52:17.226Z,5.10
2017-08-21T22:54:45.572Z,5.03
2017-08-21T22:57:15.214Z,4.50
2017-08-21T22:59:44.135Z,5.80
2017-08-21T23:02:24.034Z,4.90
2017-08-21T23:04:58.607Z,5.60
2017-08-21T23:07:27.711Z,5.13
2017-08-21T23:09:55.982Z,5.13
2017-08-21T23:12:26.898Z,4.93
2017-08-21T23:14:55.227Z,4.33
2017-08-21T23:17:23.494Z,5.47
2017-08-21T23:19:53.118Z,4.77
2017-08-21T23:22:22.442Z,4.50
2017-08-21T23:24:52.062Z,5.00
2017-08-21T23:27:20.602Z,4.60
2017-08-21T23:29:48.934Z,4.57
2017-08-21T23:32:17.217Z,4.77
2017-08-21T23:34:45.508Z,4.20
2017-08-21T23:37:13.839Z,4.93
2017-08-21T23:39:42.131Z,5.67
2017-08-21T23:42:10.403Z,5.67
2017-08-21T23:44:38.739Z,4.50
2017-08-21T23:47:08.514Z,5.17
2017-08-21T23:49:36.786Z,5.90
2017-08-21T23:52:06.470Z,6.20
2017-08-21T23:54:35.017Z,5.40
2017-08-21T23:57:03.300Z,4.93
2017-08-21T23:59:32.038Z,4.90
